sensor_id;sensor_type;location;lat;lon;timestamp;P1;durP1;ratioP1;P2;durP2;ratioP2
79139;SDS011;68546;59.142;37.948;2023-05-07T00:01:01;11.60;;;8.63;;
79139;SDS011;68546;59.142;37.948;2023-05-07T00:03:28;10.55;;;8.07;;
79139;SDS011;68546;59.142;37.948;2023-05-07T00:05:54;12.00;;;8.70;;
79139;SDS011;68546;59.142;37.948;2023-05-07T00:08:21;11.55;;;8.57;;
79139;SDS011;68546;59.142;37.948;2023-05-07T00:10:47;10.68;;;8.23;;
79139;SDS011;68546;59.142;37.948;2023-05-07T00:13:14;9.30;;;7.83;;
79139;SDS011;68546;59.142;37.948;2023-05-07T00:15:41;9.60;;;7.85;;
79139;SDS011;68546;59.142;37.948;2023-05-07T00:18:07;10.70;;;9.18;;
79139;SDS011;68546;59.142;37.948;2023-05-07T00:20:33;12.38;;;8.52;;
79139;SDS011;68546;59.142;37.948;2023-05-07T00:23:00;14.73;;;8.63;;
79139;SDS011;68546;59.142;37.948;2023-05-07T00:25:26;10.80;;;8.45;;
79139;SDS011;68546;59.142;37.948;2023-05-07T00:27:53;11.45;;;8.43;;
79139;SDS011;68546;59.142;37.948;2023-05-07T00:30:19;12.00;;;9.27;;
79139;SDS011;68546;59.142;37.948;2023-05-07T00:32:46;13.20;;;9.52;;
79139;SDS011;68546;59.142;37.948;2023-05-07T00:35:14;16.83;;;10.40;;
79139;SDS011;68546;59.142;37.948;2023-05-07T00:37:44;14.50;;;11.10;;
79139;SDS011;68546;59.142;37.948;2023-05-07T00:40:10;14.00;;;10.85;;
79139;SDS011;68546;59.142;37.948;2023-05-07T00:42:37;15.43;;;11.13;;
79139;SDS011;68546;59.142;37.948;2023-05-07T00:45:03;15.15;;;11.18;;
79139;SDS011;68546;59.142;37.948;2023-05-07T00:47:30;14.75;;;11.50;;
79139;SDS011;68546;59.142;37.948;2023-05-07T00:49:57;14.80;;;11.40;;
79139;SDS011;68546;59.142;37.948;2023-05-07T00:52:24;16.33;;;11.35;;
79139;SDS011;68546;59.142;37.948;2023-05-07T00:54:52;18.10;;;11.83;;
79139;SDS011;68546;59.142;37.948;2023-05-07T00:57:19;14.68;;;11.40;;
79139;SDS011;68546;59.142;37.948;2023-05-07T00:59:47;14.52;;;11.13;;
79139;SDS011;68546;59.142;37.948;2023-05-07T01:02:14;19.60;;;12.40;;
79139;SDS011;68546;59.142;37.948;2023-05-07T01:04:40;14.55;;;11.57;;
79139;SDS011;68546;59.142;37.948;2023-05-07T01:07:07;14.00;;;11.63;;
79139;SDS011;68546;59.142;37.948;2023-05-07T01:09:33;14.75;;;11.80;;
79139;SDS011;68546;59.142;37.948;2023-05-07T01:12:01;14.88;;;12.38;;
79139;SDS011;68546;59.142;37.948;2023-05-07T01:14:29;15.98;;;12.27;;
79139;SDS011;68546;59.142;37.948;2023-05-07T01:16:56;13.60;;;11.43;;
79139;SDS011;68546;59.142;37.948;2023-05-07T01:19:24;17.77;;;12.63;;
79139;SDS011;68546;59.142;37.948;2023-05-07T01:21:51;16.85;;;13.48;;
79139;SDS011;68546;59.142;37.948;2023-05-07T01:24:23;16.20;;;12.85;;
79139;SDS011;68546;59.142;37.948;2023-05-07T01:26:50;17.23;;;13.83;;
79139;SDS011;68546;59.142;37.948;2023-05-07T01:29:17;22.20;;;14.10;;
79139;SDS011;68546;59.142;37.948;2023-05-07T01:31:45;17.70;;;14.07;;
79139;SDS011;68546;59.142;37.948;2023-05-07T01:34:13;18.23;;;13.88;;
79139;SDS011;68546;59.142;37.948;2023-05-07T01:36:41;18.38;;;14.38;;
79139;SDS011;68546;59.142;37.948;2023-05-07T01:39:09;16.38;;;12.90;;
79139;SDS011;68546;59.142;37.948;2023-05-07T01:41:36;15.75;;;12.27;;
79139;SDS011;68546;59.142;37.948;2023-05-07T01:44:03;16.77;;;12.90;;
79139;SDS011;68546;59.142;37.948;2023-05-07T01:46:31;15.93;;;11.95;;
79139;SDS011;68546;59.142;37.948;2023-05-07T01:48:58;15.75;;;11.65;;
79139;SDS011;68546;59.142;37.948;2023-05-07T01:51:25;14.83;;;11.33;;
79139;SDS011;68546;59.142;37.948;2023-05-07T01:53:52;13.82;;;9.95;;
79139;SDS011;68546;59.142;37.948;2023-05-07T01:56:19;11.63;;;9.10;;
79139;SDS011;68546;59.142;37.948;2023-05-07T01:58:47;11.10;;;8.25;;
79139;SDS011;68546;59.142;37.948;2023-05-07T02:01:13;10.43;;;7.82;;
79139;SDS011;68546;59.142;37.948;2023-05-07T02:03:41;8.13;;;5.82;;
79139;SDS011;68546;59.142;37.948;2023-05-07T02:06:14;8.68;;;5.07;;
79139;SDS011;68546;59.142;37.948;2023-05-07T02:08:40;7.27;;;3.70;;
79139;SDS011;68546;59.142;37.948;2023-05-07T02:11:07;6.20;;;2.67;;
79139;SDS011;68546;59.142;37.948;2023-05-07T02:13:35;5.40;;;2.20;;
79139;SDS011;68546;59.142;37.948;2023-05-07T02:16:02;5.37;;;1.97;;
79139;SDS011;68546;59.142;37.948;2023-05-07T02:18:29;5.53;;;1.80;;
79139;SDS011;68546;59.142;37.948;2023-05-07T02:20:56;6.22;;;1.85;;
79139;SDS011;68546;59.142;37.948;2023-05-07T02:23:22;4.43;;;1.55;;
79139;SDS011;68546;59.142;37.948;2023-05-07T02:25:49;5.43;;;1.73;;
79139;SDS011;68546;59.142;37.948;2023-05-07T02:28:15;4.75;;;1.65;;
79139;SDS011;68546;59.142;37.948;2023-05-07T02:30:50;5.75;;;1.60;;
79139;SDS011;68546;59.142;37.948;2023-05-07T02:33:17;5.53;;;1.73;;
79139;SDS011;68546;59.142;37.948;2023-05-07T02:35:43;5.57;;;1.80;;
79139;SDS011;68546;59.142;37.948;2023-05-07T02:38:11;5.30;;;1.77;;
79139;SDS011;68546;59.142;37.948;2023-05-07T02:40:39;5.00;;;1.80;;
79139;SDS011;68546;59.142;37.948;2023-05-07T02:43:05;5.45;;;1.83;;
79139;SDS011;68546;59.142;37.948;2023-05-07T02:45:32;5.22;;;1.58;;
79139;SDS011;68546;59.142;37.948;2023-05-07T02:48:00;6.25;;;1.90;;
79139;SDS011;68546;59.142;37.948;2023-05-07T02:50:27;5.22;;;1.70;;
79139;SDS011;68546;59.142;37.948;2023-05-07T02:52:54;6.50;;;2.00;;
79139;SDS011;68546;59.142;37.948;2023-05-07T02:55:20;5.18;;;1.70;;
79139;SDS011;68546;59.142;37.948;2023-05-07T02:57:47;5.13;;;1.70;;
79139;SDS011;68546;59.142;37.948;2023-05-07T03:00:16;6.32;;;2.22;;
79139;SDS011;68546;59.142;37.948;2023-05-07T03:02:54;5.55;;;1.92;;
79139;SDS011;68546;59.142;37.948;2023-05-07T03:05:21;5.83;;;1.60;;
79139;SDS011;68546;59.142;37.948;2023-05-07T03:07:49;5.30;;;1.88;;
79139;SDS011;68546;59.142;37.948;2023-05-07T03:10:16;4.80;;;1.60;;
79139;SDS011;68546;59.142;37.948;2023-05-07T03:12:42;4.28;;;1.35;;
79139;SDS011;68546;59.142;37.948;2023-05-07T03:15:11;4.60;;;1.85;;
79139;SDS011;68546;59.142;37.948;2023-05-07T03:17:38;4.50;;;1.65;;
79139;SDS011;68546;59.142;37.948;2023-05-07T03:20:05;6.75;;;1.73;;
79139;SDS011;68546;59.142;37.948;2023-05-07T03:22:33;5.67;;;1.80;;
79139;SDS011;68546;59.142;37.948;2023-05-07T03:24:59;7.57;;;1.67;;
79139;SDS011;68546;59.142;37.948;2023-05-07T03:27:25;5.13;;;1.48;;
79139;SDS011;68546;59.142;37.948;2023-05-07T03:29:53;5.70;;;1.43;;
79139;SDS011;68546;59.142;37.948;2023-05-07T03:32:19;5.45;;;1.67;;
79139;SDS011;68546;59.142;37.948;2023-05-07T03:34:46;7.78;;;2.50;;
79139;SDS011;68546;59.142;37.948;2023-05-07T03:37:13;13.25;;;3.90;;
79139;SDS011;68546;59.142;37.948;2023-05-07T03:39:40;13.95;;;5.20;;
79139;SDS011;68546;59.142;37.948;2023-05-07T03:42:06;19.45;;;5.78;;
79139;SDS011;68546;59.142;37.948;2023-05-07T03:44:33;18.10;;;6.22;;
79139;SDS011;68546;59.142;37.948;2023-05-07T03:46:59;21.40;;;6.33;;
79139;SDS011;68546;59.142;37.948;2023-05-07T03:49:26;16.55;;;5.00;;
79139;SDS011;68546;59.142;37.948;2023-05-07T03:51:53;16.70;;;4.43;;
79139;SDS011;68546;59.142;37.948;2023-05-07T03:54:20;11.68;;;3.92;;
79139;SDS011;68546;59.142;37.948;2023-05-07T03:56:46;9.82;;;3.45;;
79139;SDS011;68546;59.142;37.948;2023-05-07T03:59:13;6.82;;;2.20;;
79139;SDS011;68546;59.142;37.948;2023-05-07T04:01:40;6.97;;;2.05;;
79139;SDS011;68546;59.142;37.948;2023-05-07T04:04:07;4.60;;;1.63;;
79139;SDS011;68546;59.142;37.948;2023-05-07T04:06:35;4.75;;;1.67;;
79139;SDS011;68546;59.142;37.948;2023-05-07T04:09:02;5.97;;;1.63;;
79139;SDS011;68546;59.142;37.948;2023-05-07T04:11:29;5.25;;;1.65;;
79139;SDS011;68546;59.142;37.948;2023-05-07T04:13:56;4.38;;;1.35;;
79139;SDS011;68546;59.142;37.948;2023-05-07T04:16:23;4.22;;;1.48;;
79139;SDS011;68546;59.142;37.948;2023-05-07T04:18:50;4.70;;;1.70;;
79139;SDS011;68546;59.142;37.948;2023-05-07T04:21:17;3.83;;;1.30;;
79139;SDS011;68546;59.142;37.948;2023-05-07T04:23:49;4.80;;;1.55;;
79139;SDS011;68546;59.142;37.948;2023-05-07T04:26:15;9.73;;;1.45;;
79139;SDS011;68546;59.142;37.948;2023-05-07T04:28:43;4.43;;;1.42;;
79139;SDS011;68546;59.142;37.948;2023-05-07T04:31:10;6.20;;;1.63;;
79139;SDS011;68546;59.142;37.948;2023-05-07T04:33:38;3.50;;;1.13;;
79139;SDS011;68546;59.142;37.948;2023-05-07T04:36:07;3.78;;;1.40;;
79139;SDS011;68546;59.142;37.948;2023-05-07T04:38:39;4.63;;;1.30;;
79139;SDS011;68546;59.142;37.948;2023-05-07T04:41:06;4.40;;;1.40;;
79139;SDS011;68546;59.142;37.948;2023-05-07T04:43:38;4.22;;;1.13;;
79139;SDS011;68546;59.142;37.948;2023-05-07T04:46:04;4.45;;;1.50;;
79139;SDS011;68546;59.142;37.948;2023-05-07T04:48:31;3.42;;;1.33;;
79139;SDS011;68546;59.142;37.948;2023-05-07T04:50:59;3.90;;;1.23;;
79139;SDS011;68546;59.142;37.948;2023-05-07T04:53:25;5.25;;;1.52;;
79139;SDS011;68546;59.142;37.948;2023-05-07T04:55:56;5.03;;;1.33;;
79139;SDS011;68546;59.142;37.948;2023-05-07T04:58:25;4.88;;;1.63;;
79139;SDS011;68546;59.142;37.948;2023-05-07T05:00:53;5.00;;;1.40;;
79139;SDS011;68546;59.142;37.948;2023-05-07T05:03:19;5.05;;;1.33;;
79139;SDS011;68546;59.142;37.948;2023-05-07T05:05:46;4.72;;;1.42;;
79139;SDS011;68546;59.142;37.948;2023-05-07T05:08:15;3.80;;;1.15;;
79139;SDS011;68546;59.142;37.948;2023-05-07T05:10:42;5.07;;;1.57;;
79139;SDS011;68546;59.142;37.948;2023-05-07T05:13:09;4.80;;;1.40;;
79139;SDS011;68546;59.142;37.948;2023-05-07T05:15:38;4.20;;;1.17;;
79139;SDS011;68546;59.142;37.948;2023-05-07T05:18:05;4.05;;;1.27;;
79139;SDS011;68546;59.142;37.948;2023-05-07T05:20:34;5.50;;;1.63;;
79139;SDS011;68546;59.142;37.948;2023-05-07T05:23:32;5.63;;;1.65;;
79139;SDS011;68546;59.142;37.948;2023-05-07T05:25:59;3.40;;;1.08;;
79139;SDS011;68546;59.142;37.948;2023-05-07T05:28:28;6.40;;;1.58;;
79139;SDS011;68546;59.142;37.948;2023-05-07T05:30:55;4.33;;;1.33;;
79139;SDS011;68546;59.142;37.948;2023-05-07T05:33:23;4.78;;;1.58;;
79139;SDS011;68546;59.142;37.948;2023-05-07T05:35:49;4.78;;;1.45;;
79139;SDS011;68546;59.142;37.948;2023-05-07T05:38:16;5.00;;;1.52;;
79139;SDS011;68546;59.142;37.948;2023-05-07T05:40:43;4.90;;;1.40;;
79139;SDS011;68546;59.142;37.948;2023-05-07T05:43:10;4.30;;;1.45;;
79139;SDS011;68546;59.142;37.948;2023-05-07T05:45:37;4.18;;;1.30;;
79139;SDS011;68546;59.142;37.948;2023-05-07T05:48:03;4.43;;;1.25;;
79139;SDS011;68546;59.142;37.948;2023-05-07T05:50:30;4.00;;;1.53;;
79139;SDS011;68546;59.142;37.948;2023-05-07T05:53:07;4.30;;;1.50;;
79139;SDS011;68546;59.142;37.948;2023-05-07T05:55:33;2.10;;;0.77;;
79139;SDS011;68546;59.142;37.948;2023-05-07T05:58:00;3.40;;;0.95;;
79139;SDS011;68546;59.142;37.948;2023-05-07T06:00:29;4.07;;;1.17;;
79139;SDS011;68546;59.142;37.948;2023-05-07T06:03:01;3.20;;;1.08;;
79139;SDS011;68546;59.142;37.948;2023-05-07T06:05:27;3.20;;;0.90;;
79139;SDS011;68546;59.142;37.948;2023-05-07T06:07:55;4.70;;;1.05;;
79139;SDS011;68546;59.142;37.948;2023-05-07T06:10:22;4.50;;;1.27;;
79139;SDS011;68546;59.142;37.948;2023-05-07T06:12:48;3.60;;;1.10;;
79139;SDS011;68546;59.142;37.948;2023-05-07T06:15:15;3.50;;;0.95;;
79139;SDS011;68546;59.142;37.948;2023-05-07T06:17:42;3.28;;;1.02;;
79139;SDS011;68546;59.142;37.948;2023-05-07T06:20:10;2.28;;;0.73;;
79139;SDS011;68546;59.142;37.948;2023-05-07T06:22:37;2.90;;;0.97;;
79139;SDS011;68546;59.142;37.948;2023-05-07T06:25:05;3.22;;;0.85;;
79139;SDS011;68546;59.142;37.948;2023-05-07T06:27:32;4.35;;;1.13;;
79139;SDS011;68546;59.142;37.948;2023-05-07T06:29:59;2.55;;;0.80;;
79139;SDS011;68546;59.142;37.948;2023-05-07T06:32:26;4.85;;;0.90;;
79139;SDS011;68546;59.142;37.948;2023-05-07T06:34:52;3.37;;;0.93;;
79139;SDS011;68546;59.142;37.948;2023-05-07T06:37:19;14.55;;;1.05;;
79139;SDS011;68546;59.142;37.948;2023-05-07T06:40:01;2.92;;;1.25;;
79139;SDS011;68546;59.142;37.948;2023-05-07T06:42:30;2.75;;;0.82;;
79139;SDS011;68546;59.142;37.948;2023-05-07T06:45:06;4.25;;;1.00;;
79139;SDS011;68546;59.142;37.948;2023-05-07T06:47:33;2.77;;;0.80;;
79139;SDS011;68546;59.142;37.948;2023-05-07T06:50:01;4.53;;;1.02;;
79139;SDS011;68546;59.142;37.948;2023-05-07T06:52:31;3.60;;;1.08;;
79139;SDS011;68546;59.142;37.948;2023-05-07T06:54:59;4.75;;;0.82;;
79139;SDS011;68546;59.142;37.948;2023-05-07T06:57:27;3.95;;;0.95;;
79139;SDS011;68546;59.142;37.948;2023-05-07T06:59:53;3.23;;;0.90;;
79139;SDS011;68546;59.142;37.948;2023-05-07T07:02:21;6.20;;;1.08;;
79139;SDS011;68546;59.142;37.948;2023-05-07T07:04:48;3.70;;;1.08;;
79139;SDS011;68546;59.142;37.948;2023-05-07T07:07:15;4.22;;;1.00;;
79139;SDS011;68546;59.142;37.948;2023-05-07T07:09:44;3.22;;;0.90;;
79139;SDS011;68546;59.142;37.948;2023-05-07T07:12:13;3.60;;;1.07;;
79139;SDS011;68546;59.142;37.948;2023-05-07T07:14:41;3.63;;;0.90;;
79139;SDS011;68546;59.142;37.948;2023-05-07T07:17:09;3.42;;;0.88;;
79139;SDS011;68546;59.142;37.948;2023-05-07T07:19:35;3.70;;;0.90;;
79139;SDS011;68546;59.142;37.948;2023-05-07T07:22:03;3.20;;;0.73;;
79139;SDS011;68546;59.142;37.948;2023-05-07T07:24:31;2.70;;;0.70;;
79139;SDS011;68546;59.142;37.948;2023-05-07T07:27:01;3.50;;;0.90;;
79139;SDS011;68546;59.142;37.948;2023-05-07T07:29:28;4.78;;;1.00;;
79139;SDS011;68546;59.142;37.948;2023-05-07T07:31:55;3.97;;;1.08;;
79139;SDS011;68546;59.142;37.948;2023-05-07T07:34:23;3.65;;;0.98;;
79139;SDS011;68546;59.142;37.948;2023-05-07T07:36:50;4.13;;;1.03;;
79139;SDS011;68546;59.142;37.948;2023-05-07T07:39:18;2.83;;;0.68;;
79139;SDS011;68546;59.142;37.948;2023-05-07T07:41:47;2.88;;;0.90;;
79139;SDS011;68546;59.142;37.948;2023-05-07T07:44:15;3.67;;;0.85;;
79139;SDS011;68546;59.142;37.948;2023-05-07T07:46:41;3.25;;;0.73;;
79139;SDS011;68546;59.142;37.948;2023-05-07T07:49:08;4.77;;;1.57;;
79139;SDS011;68546;59.142;37.948;2023-05-07T07:51:35;4.65;;;1.35;;
79139;SDS011;68546;59.142;37.948;2023-05-07T07:54:02;3.90;;;1.25;;
79139;SDS011;68546;59.142;37.948;2023-05-07T07:56:31;3.63;;;1.10;;
79139;SDS011;68546;59.142;37.948;2023-05-07T07:59:00;5.18;;;1.50;;
79139;SDS011;68546;59.142;37.948;2023-05-07T08:01:29;2.50;;;0.70;;
79139;SDS011;68546;59.142;37.948;2023-05-07T08:03:59;2.85;;;0.90;;
79139;SDS011;68546;59.142;37.948;2023-05-07T08:06:27;2.97;;;0.90;;
79139;SDS011;68546;59.142;37.948;2023-05-07T08:08:55;3.60;;;1.02;;
79139;SDS011;68546;59.142;37.948;2023-05-07T08:11:22;3.58;;;0.90;;
79139;SDS011;68546;59.142;37.948;2023-05-07T08:13:49;3.30;;;0.80;;
79139;SDS011;68546;59.142;37.948;2023-05-07T08:16:16;3.47;;;0.90;;
79139;SDS011;68546;59.142;37.948;2023-05-07T08:18:43;4.68;;;1.05;;
79139;SDS011;68546;59.142;37.948;2023-05-07T08:21:09;3.65;;;0.93;;
79139;SDS011;68546;59.142;37.948;2023-05-07T08:23:36;3.00;;;0.88;;
79139;SDS011;68546;59.142;37.948;2023-05-07T08:26:04;3.70;;;1.10;;
79139;SDS011;68546;59.142;37.948;2023-05-07T08:28:30;3.58;;;0.90;;
79139;SDS011;68546;59.142;37.948;2023-05-07T08:30:56;2.00;;;0.57;;
79139;SDS011;68546;59.142;37.948;2023-05-07T08:33:28;3.40;;;0.90;;
79139;SDS011;68546;59.142;37.948;2023-05-07T08:35:54;3.75;;;1.00;;
79139;SDS011;68546;59.142;37.948;2023-05-07T08:38:22;3.40;;;0.80;;
79139;SDS011;68546;59.142;37.948;2023-05-07T08:40:48;1.83;;;0.60;;
79139;SDS011;68546;59.142;37.948;2023-05-07T08:43:18;3.00;;;0.70;;
79139;SDS011;68546;59.142;37.948;2023-05-07T08:45:46;3.72;;;0.80;;
79139;SDS011;68546;59.142;37.948;2023-05-07T08:48:18;2.85;;;0.68;;
79139;SDS011;68546;59.142;37.948;2023-05-07T08:50:57;3.40;;;0.80;;
79139;SDS011;68546;59.142;37.948;2023-05-07T08:53:25;4.25;;;0.90;;
79139;SDS011;68546;59.142;37.948;2023-05-07T08:55:52;2.63;;;0.70;;
79139;SDS011;68546;59.142;37.948;2023-05-07T08:58:19;6.05;;;1.20;;
79139;SDS011;68546;59.142;37.948;2023-05-07T09:00:46;3.22;;;0.90;;
79139;SDS011;68546;59.142;37.948;2023-05-07T09:03:13;4.23;;;0.80;;
79139;SDS011;68546;59.142;37.948;2023-05-07T09:05:43;2.85;;;0.60;;
79139;SDS011;68546;59.142;37.948;2023-05-07T09:08:14;3.72;;;0.75;;
79139;SDS011;68546;59.142;37.948;2023-05-07T09:10:42;3.03;;;0.70;;
79139;SDS011;68546;59.142;37.948;2023-05-07T09:13:10;2.78;;;0.68;;
79139;SDS011;68546;59.142;37.948;2023-05-07T09:15:40;2.93;;;0.90;;
79139;SDS011;68546;59.142;37.948;2023-05-07T09:18:08;3.67;;;0.73;;
79139;SDS011;68546;59.142;37.948;2023-05-07T09:20:37;4.40;;;0.70;;
79139;SDS011;68546;59.142;37.948;2023-05-07T09:23:06;3.20;;;0.90;;
79139;SDS011;68546;59.142;37.948;2023-05-07T09:25:34;3.35;;;0.70;;
79139;SDS011;68546;59.142;37.948;2023-05-07T09:28:10;1.80;;;0.67;;
79139;SDS011;68546;59.142;37.948;2023-05-07T09:30:36;2.55;;;0.70;;
79139;SDS011;68546;59.142;37.948;2023-05-07T09:33:06;3.63;;;0.70;;
79139;SDS011;68546;59.142;37.948;2023-05-07T09:35:37;3.83;;;0.57;;
79139;SDS011;68546;59.142;37.948;2023-05-07T09:38:08;5.30;;;0.73;;
79139;SDS011;68546;59.142;37.948;2023-05-07T09:40:36;3.23;;;0.73;;
79139;SDS011;68546;59.142;37.948;2023-05-07T09:43:10;3.20;;;0.60;;
79139;SDS011;68546;59.142;37.948;2023-05-07T09:45:42;2.72;;;0.60;;
79139;SDS011;68546;59.142;37.948;2023-05-07T09:48:09;1.63;;;0.50;;
79139;SDS011;68546;59.142;37.948;2023-05-07T09:50:41;3.83;;;0.70;;
79139;SDS011;68546;59.142;37.948;2023-05-07T09:53:16;2.10;;;0.50;;
79139;SDS011;68546;59.142;37.948;2023-05-07T09:55:45;2.85;;;0.55;;
79139;SDS011;68546;59.142;37.948;2023-05-07T09:58:13;4.85;;;0.80;;
79139;SDS011;68546;59.142;37.948;2023-05-07T10:00:43;3.33;;;0.57;;
79139;SDS011;68546;59.142;37.948;2023-05-07T10:03:14;2.83;;;0.82;;
79139;SDS011;68546;59.142;37.948;2023-05-07T10:05:51;2.83;;;0.57;;
79139;SDS011;68546;59.142;37.948;2023-05-07T10:08:19;2.60;;;0.70;;
79139;SDS011;68546;59.142;37.948;2023-05-07T10:10:48;4.57;;;0.77;;
79139;SDS011;68546;59.142;37.948;2023-05-07T10:13:22;3.97;;;0.60;;
79139;SDS011;68546;59.142;37.948;2023-05-07T10:15:52;1.92;;;0.40;;
79139;SDS011;68546;59.142;37.948;2023-05-07T10:18:22;2.50;;;0.50;;
79139;SDS011;68546;59.142;37.948;2023-05-07T10:20:50;1.63;;;0.40;;
79139;SDS011;68546;59.142;37.948;2023-05-07T10:23:22;3.38;;;0.60;;
79139;SDS011;68546;59.142;37.948;2023-05-07T10:25:53;8.82;;;0.90;;
79139;SDS011;68546;59.142;37.948;2023-05-07T10:28:22;2.53;;;0.50;;
79139;SDS011;68546;59.142;37.948;2023-05-07T10:33:39;2.97;;;0.57;;
79139;SDS011;68546;59.142;37.948;2023-05-07T10:36:07;2.35;;;0.50;;
79139;SDS011;68546;59.142;37.948;2023-05-07T10:38:34;2.65;;;0.60;;
79139;SDS011;68546;59.142;37.948;2023-05-07T10:41:02;2.00;;;0.50;;
79139;SDS011;68546;59.142;37.948;2023-05-07T10:43:43;4.50;;;0.60;;
79139;SDS011;68546;59.142;37.948;2023-05-07T10:46:20;2.58;;;0.57;;
79139;SDS011;68546;59.142;37.948;2023-05-07T10:51:42;2.00;;;0.52;;
79139;SDS011;68546;59.142;37.948;2023-05-07T10:54:23;2.83;;;0.50;;
79139;SDS011;68546;59.142;37.948;2023-05-07T10:56:58;3.20;;;0.70;;
79139;SDS011;68546;59.142;37.948;2023-05-07T10:59:58;2.42;;;0.52;;
79139;SDS011;68546;59.142;37.948;2023-05-07T11:05:33;2.92;;;0.50;;
79139;SDS011;68546;59.142;37.948;2023-05-07T11:08:11;4.40;;;0.60;;
79139;SDS011;68546;59.142;37.948;2023-05-07T11:10:59;2.57;;;0.70;;
79139;SDS011;68546;59.142;37.948;2023-05-07T11:13:49;4.70;;;0.60;;
79139;SDS011;68546;59.142;37.948;2023-05-07T11:16:28;3.90;;;0.82;;
79139;SDS011;68546;59.142;37.948;2023-05-07T11:19:08;4.00;;;0.70;;
79139;SDS011;68546;59.142;37.948;2023-05-07T11:21:42;2.60;;;0.65;;
79139;SDS011;68546;59.142;37.948;2023-05-07T11:24:22;3.23;;;0.60;;
79139;SDS011;68546;59.142;37.948;2023-05-07T11:26:53;3.85;;;0.60;;
79139;SDS011;68546;59.142;37.948;2023-05-07T11:29:23;1.58;;;0.43;;
79139;SDS011;68546;59.142;37.948;2023-05-07T11:31:55;6.95;;;0.70;;
79139;SDS011;68546;59.142;37.948;2023-05-07T11:34:25;2.53;;;0.50;;
79139;SDS011;68546;59.142;37.948;2023-05-07T11:36:54;1.70;;;0.50;;
79139;SDS011;68546;59.142;37.948;2023-05-07T11:39:32;2.28;;;0.40;;
79139;SDS011;68546;59.142;37.948;2023-05-07T11:41:59;2.13;;;0.45;;
79139;SDS011;68546;59.142;37.948;2023-05-07T11:44:39;3.03;;;0.68;;
79139;SDS011;68546;59.142;37.948;2023-05-07T11:47:21;5.55;;;0.70;;
79139;SDS011;68546;59.142;37.948;2023-05-07T11:49:48;2.53;;;0.57;;
79139;SDS011;68546;59.142;37.948;2023-05-07T11:52:17;3.35;;;0.55;;
79139;SDS011;68546;59.142;37.948;2023-05-07T11:54:54;3.70;;;1.10;;
79139;SDS011;68546;59.142;37.948;2023-05-07T11:57:23;3.60;;;0.80;;
79139;SDS011;68546;59.142;37.948;2023-05-07T11:59:53;3.40;;;0.70;;
79139;SDS011;68546;59.142;37.948;2023-05-07T12:02:23;2.27;;;0.53;;
79139;SDS011;68546;59.142;37.948;2023-05-07T12:04:50;3.58;;;0.77;;
79139;SDS011;68546;59.142;37.948;2023-05-07T12:07:17;2.13;;;0.50;;
79139;SDS011;68546;59.142;37.948;2023-05-07T12:09:44;2.60;;;0.57;;
79139;SDS011;68546;59.142;37.948;2023-05-07T12:12:11;2.95;;;0.80;;
79139;SDS011;68546;59.142;37.948;2023-05-07T12:14:40;2.63;;;0.50;;
79139;SDS011;68546;59.142;37.948;2023-05-07T12:17:07;2.80;;;0.60;;
79139;SDS011;68546;59.142;37.948;2023-05-07T12:19:35;2.92;;;0.70;;
79139;SDS011;68546;59.142;37.948;2023-05-07T12:22:02;2.22;;;0.40;;
79139;SDS011;68546;59.142;37.948;2023-05-07T12:24:41;4.95;;;1.02;;
79139;SDS011;68546;59.142;37.948;2023-05-07T12:27:11;5.77;;;2.50;;
79139;SDS011;68546;59.142;37.948;2023-05-07T12:29:38;3.33;;;0.80;;
79139;SDS011;68546;59.142;37.948;2023-05-07T12:32:06;2.53;;;0.55;;
79139;SDS011;68546;59.142;37.948;2023-05-07T12:34:39;2.92;;;0.43;;
79139;SDS011;68546;59.142;37.948;2023-05-07T12:37:05;2.80;;;0.60;;
79139;SDS011;68546;59.142;37.948;2023-05-07T12:39:31;2.47;;;0.50;;
79139;SDS011;68546;59.142;37.948;2023-05-07T12:41:58;2.67;;;0.43;;
79139;SDS011;68546;59.142;37.948;2023-05-07T12:44:29;1.92;;;0.40;;
79139;SDS011;68546;59.142;37.948;2023-05-07T12:46:57;2.83;;;0.55;;
79139;SDS011;68546;59.142;37.948;2023-05-07T12:49:23;2.53;;;0.60;;
79139;SDS011;68546;59.142;37.948;2023-05-07T12:51:51;4.90;;;1.07;;
79139;SDS011;68546;59.142;37.948;2023-05-07T12:54:30;6.75;;;1.40;;
79139;SDS011;68546;59.142;37.948;2023-05-07T12:57:01;2.70;;;0.60;;
79139;SDS011;68546;59.142;37.948;2023-05-07T12:59:32;3.05;;;0.68;;
79139;SDS011;68546;59.142;37.948;2023-05-07T13:01:58;5.03;;;0.68;;
79139;SDS011;68546;59.142;37.948;2023-05-07T13:04:26;4.47;;;0.93;;
79139;SDS011;68546;59.142;37.948;2023-05-07T13:06:55;5.03;;;0.80;;
79139;SDS011;68546;59.142;37.948;2023-05-07T13:09:21;4.30;;;1.40;;
79139;SDS011;68546;59.142;37.948;2023-05-07T13:11:47;3.53;;;0.90;;
79139;SDS011;68546;59.142;37.948;2023-05-07T13:14:14;2.15;;;0.50;;
79139;SDS011;68546;59.142;37.948;2023-05-07T13:16:41;4.07;;;0.47;;
79139;SDS011;68546;59.142;37.948;2023-05-07T13:19:07;2.92;;;0.50;;
79139;SDS011;68546;59.142;37.948;2023-05-07T13:21:33;2.92;;;0.52;;
79139;SDS011;68546;59.142;37.948;2023-05-07T13:24:00;3.25;;;0.60;;
79139;SDS011;68546;59.142;37.948;2023-05-07T13:26:26;2.63;;;0.45;;
79139;SDS011;68546;59.142;37.948;2023-05-07T13:28:55;2.80;;;0.60;;
79139;SDS011;68546;59.142;37.948;2023-05-07T13:31:22;2.80;;;0.60;;
79139;SDS011;68546;59.142;37.948;2023-05-07T13:33:48;2.60;;;0.50;;
79139;SDS011;68546;59.142;37.948;2023-05-07T13:36:15;2.70;;;0.50;;
79139;SDS011;68546;59.142;37.948;2023-05-07T13:38:41;3.08;;;0.70;;
79139;SDS011;68546;59.142;37.948;2023-05-07T13:41:07;2.47;;;0.60;;
79139;SDS011;68546;59.142;37.948;2023-05-07T13:43:34;1.60;;;0.40;;
79139;SDS011;68546;59.142;37.948;2023-05-07T13:46:00;3.30;;;0.50;;
79139;SDS011;68546;59.142;37.948;2023-05-07T13:48:27;2.22;;;0.40;;
79139;SDS011;68546;59.142;37.948;2023-05-07T13:50:54;4.85;;;0.40;;
79139;SDS011;68546;59.142;37.948;2023-05-07T13:53:20;2.23;;;0.40;;
79139;SDS011;68546;59.142;37.948;2023-05-07T13:55:46;4.38;;;0.52;;
79139;SDS011;68546;59.142;37.948;2023-05-07T13:58:13;1.98;;;0.47;;
79139;SDS011;68546;59.142;37.948;2023-05-07T14:00:40;2.22;;;0.38;;
79139;SDS011;68546;59.142;37.948;2023-05-07T14:03:06;2.88;;;0.50;;
79139;SDS011;68546;59.142;37.948;2023-05-07T14:05:32;2.83;;;0.60;;
79139;SDS011;68546;59.142;37.948;2023-05-07T14:07:59;2.58;;;0.45;;
79139;SDS011;68546;59.142;37.948;2023-05-07T14:10:25;2.35;;;0.40;;
79139;SDS011;68546;59.142;37.948;2023-05-07T14:12:51;2.90;;;0.70;;
79139;SDS011;68546;59.142;37.948;2023-05-07T14:15:21;2.00;;;0.40;;
79139;SDS011;68546;59.142;37.948;2023-05-07T14:17:47;3.53;;;0.97;;
79139;SDS011;68546;59.142;37.948;2023-05-07T14:20:14;4.85;;;1.60;;
79139;SDS011;68546;59.142;37.948;2023-05-07T14:22:40;5.70;;;1.42;;
79139;SDS011;68546;59.142;37.948;2023-05-07T14:25:06;4.03;;;1.13;;
79139;SDS011;68546;59.142;37.948;2023-05-07T14:27:35;5.32;;;1.90;;
79139;SDS011;68546;59.142;37.948;2023-05-07T14:30:01;3.77;;;1.10;;
79139;SDS011;68546;59.142;37.948;2023-05-07T14:32:29;3.55;;;0.90;;
79139;SDS011;68546;59.142;37.948;2023-05-07T14:34:56;3.33;;;1.02;;
79139;SDS011;68546;59.142;37.948;2023-05-07T14:37:22;3.42;;;0.80;;
79139;SDS011;68546;59.142;37.948;2023-05-07T14:39:49;4.13;;;0.73;;
79139;SDS011;68546;59.142;37.948;2023-05-07T14:42:17;4.87;;;0.53;;
79139;SDS011;68546;59.142;37.948;2023-05-07T14:44:43;2.00;;;0.40;;
79139;SDS011;68546;59.142;37.948;2023-05-07T14:47:10;2.80;;;0.60;;